Time;durP1;ratioP1;P1;durP2;ratioP2;P2;SDS_P1;SDS_P2;PMS_P1;PMS_P2;Temp;Humidity;BMP_temperature;BMP_pressure;BME280_temperature;BME280_humidity;BME280_pressure;Samples;Min_cycle;Max_cycle;Signal;HPM_P1;HPM_P2
2022/10/09 00:00:28;;;;;;;16.73;13.73;;;;;;;;;;5090537;28;20044;-79
2022/10/09 00:02:55;;;;;;;23.52;14.95;;;;;;;;;;5073668;28;20495;-78
2022/10/09 00:05:25;;;;;;;16.38;14.07;;;;;;;;;;5088437;28;20078;-79
2022/10/09 00:07:53;;;;;;;27.23;14.85;;;;;;;;;;5070508;28;20089;-79
2022/10/09 00:10:20;;;;;;;17.17;14.07;;;;;;;;;;5072797;28;20056;-80
2022/10/09 00:12:48;;;;;;;27.00;14.35;;;;;;;;;;5072586;28;20052;-79
2022/10/09 00:15:16;;;;;;;18.38;14.55;;;;;;;;;;5094992;22;20524;-77
2022/10/09 00:17:43;;;;;;;16.48;14.60;;;;;;;;;;5027338;28;20527;-77
2022/10/09 00:20:11;;;;;;;13.82;12.40;;;;;;;;;;5043618;28;20546;-77
2022/10/09 00:22:39;;;;;;;15.98;14.13;;;;;;;;;;5045989;28;20045;-77
2022/10/09 00:25:06;;;;;;;20.20;13.43;;;;;;;;;;5027980;28;20041;-77
2022/10/09 00:27:33;;;;;;;15.23;13.63;;;;;;;;;;5046830;28;20416;-77
2022/10/09 00:30:01;;;;;;;15.68;14.07;;;;;;;;;;5012340;28;20411;-77
2022/10/09 00:32:28;;;;;;;14.48;11.63;;;;;;;;;;5046672;28;20052;-77
2022/10/09 00:34:56;;;;;;;17.38;12.25;;;;;;;;;;5028732;28;20044;-77
2022/10/09 00:37:23;;;;;;;14.88;12.73;;;;;;;;;;5042788;28;20041;-77
2022/10/09 00:39:50;;;;;;;15.05;11.95;;;;;;;;;;5051405;28;20052;-77
2022/10/09 00:42:18;;;;;;;13.23;11.40;;;;;;;;;;5055845;28;20045;-77
2022/10/09 00:44:48;;;;;;;16.45;11.18;;;;;;;;;;5050801;28;20041;-77
2022/10/09 00:47:22;;;;;;;13.25;11.88;;;;;;;;;;5050226;28;20505;-77
2022/10/09 00:49:49;;;;;;;13.23;10.95;;;;;;;;;;5050377;28;20045;-77
2022/10/09 00:52:17;;;;;;;10.75;9.75;;;;;;;;;;5049530;28;20041;-79
2022/10/09 00:54:44;;;;;;;13.02;9.80;;;;;;;;;;5044777;28;20099;-77
2022/10/09 00:57:12;;;;;;;11.15;9.02;;;;;;;;;;5049711;28;20083;-77
2022/10/09 00:59:39;;;;;;;9.77;8.88;;;;;;;;;;5032720;28;20063;-77
2022/10/09 01:02:07;;;;;;;9.95;9.05;;;;;;;;;;5049964;28;20527;-76
2022/10/09 01:04:34;;;;;;;8.95;8.15;;;;;;;;;;5049204;28;20535;-77
2022/10/09 01:07:18;;;;;;;9.88;7.25;;;;;;;;;;5014546;28;20852;-76
2022/10/09 01:09:56;;;;;;;7.68;6.82;;;;;;;;;;5015149;28;20139;-77
2022/10/09 01:12:29;;;;;;;7.53;6.82;;;;;;;;;;5024058;28;20045;-77
2022/10/09 01:15:03;;;;;;;7.22;6.53;;;;;;;;;;5031353;28;20048;-77
2022/10/09 01:17:51;;;;;;;6.45;5.95;;;;;;;;;;5049775;28;20072;-77
2022/10/09 01:20:22;;;;;;;7.43;6.72;;;;;;;;;;5013231;28;20102;-77
2022/10/09 01:22:49;;;;;;;7.65;6.95;;;;;;;;;;5034978;28;20128;-76
2022/10/09 01:25:31;;;;;;;8.25;6.97;;;;;;;;;;5038503;28;20038;-77
2022/10/09 01:27:59;;;;;;;8.02;5.65;;;;;;;;;;5013785;28;20080;-77
2022/10/09 01:30:27;;;;;;;7.55;6.72;;;;;;;;;;5013565;28;20508;-77
2022/10/09 01:32:55;;;;;;;7.95;6.20;;;;;;;;;;5032050;28;20077;-77
2022/10/09 01:35:22;;;;;;;6.28;5.68;;;;;;;;;;5031603;28;20057;-77
2022/10/09 01:37:51;;;;;;;7.10;5.47;;;;;;;;;;5062845;28;20056;-77
2022/10/09 01:40:19;;;;;;;5.68;4.90;;;;;;;;;;5070677;28;20416;-77
2022/10/09 01:42:46;;;;;;;6.20;5.65;;;;;;;;;;5052539;28;20052;-77
2022/10/09 01:45:15;;;;;;;5.50;5.07;;;;;;;;;;5047029;28;20057;-77
2022/10/09 01:47:42;;;;;;;5.63;5.13;;;;;;;;;;5049408;28;20037;-77
2022/10/09 01:50:13;;;;;;;5.60;5.20;;;;;;;;;;5031438;28;20045;-77
2022/10/09 01:52:52;;;;;;;4.93;4.60;;;;;;;;;;5055519;28;20457;-77
2022/10/09 01:55:23;;;;;;;5.05;4.65;;;;;;;;;;5068853;28;20052;-77
2022/10/09 01:58:09;;;;;;;5.35;4.95;;;;;;;;;;5069501;28;20036;-77
2022/10/09 02:00:39;;;;;;;6.28;5.68;;;;;;;;;;5018612;28;20120;-77
2022/10/09 02:03:09;;;;;;;6.80;6.20;;;;;;;;;;5049210;28;20087;-77
2022/10/09 02:05:37;;;;;;;5.78;5.28;;;;;;;;;;5049456;28;20099;-78
2022/10/09 02:08:05;;;;;;;6.13;5.53;;;;;;;;;;5037532;28;20048;-77
2022/10/09 02:10:34;;;;;;;9.93;5.57;;;;;;;;;;5047677;23;20161;-75
2022/10/09 02:13:01;;;;;;;6.30;5.70;;;;;;;;;;5079033;28;20032;-75
2022/10/09 02:15:46;;;;;;;12.40;6.32;;;;;;;;;;5057775;28;20533;-75
2022/10/09 02:18:15;;;;;;;15.30;6.05;;;;;;;;;;5069585;28;20043;-75
2022/10/09 02:20:50;;;;;;;10.93;5.97;;;;;;;;;;5070279;28;20163;-76
2022/10/09 02:23:19;;;;;;;13.50;5.85;;;;;;;;;;5069176;28;20510;-75
2022/10/09 02:25:46;;;;;;;13.45;5.63;;;;;;;;;;5069167;28;20087;-75
2022/10/09 02:28:13;;;;;;;7.55;5.70;;;;;;;;;;5068867;28;20317;-75
2022/10/09 02:30:46;;;;;;;21.50;6.38;;;;;;;;;;5068994;28;20052;-75
2022/10/09 02:33:13;;;;;;;6.40;5.78;;;;;;;;;;5063592;28;20128;-75
2022/10/09 02:35:40;;;;;;;8.25;6.22;;;;;;;;;;5077908;28;20500;-75
2022/10/09 02:38:07;;;;;;;6.68;6.15;;;;;;;;;;5070169;28;20033;-76
2022/10/09 02:40:35;;;;;;;9.35;7.80;;;;;;;;;;5069172;28;20573;-77
2022/10/09 02:43:02;;;;;;;8.25;6.95;;;;;;;;;;5070354;28;20125;-74
2022/10/09 02:45:29;;;;;;;10.32;6.53;;;;;;;;;;5068806;28;20227;-75
2022/10/09 02:47:56;;;;;;;25.70;7.80;;;;;;;;;;5069350;28;20040;-75
2022/10/09 02:50:23;;;;;;;14.93;8.27;;;;;;;;;;5065193;28;20033;-75
2022/10/09 02:52:51;;;;;;;7.95;6.80;;;;;;;;;;5066491;28;20576;-77
2022/10/09 02:55:18;;;;;;;8.07;5.97;;;;;;;;;;5049590;28;20123;-77
2022/10/09 02:57:45;;;;;;;13.02;6.68;;;;;;;;;;5051831;28;20068;-75
2022/10/09 03:00:13;;;;;;;7.90;6.82;;;;;;;;;;5052657;28;20506;-75
2022/10/09 03:02:40;;;;;;;20.85;10.45;;;;;;;;;;5056199;28;20068;-74
2022/10/09 03:05:07;;;;;;;17.05;10.02;;;;;;;;;;5067106;28;20045;-75
2022/10/09 03:07:35;;;;;;;29.33;7.15;;;;;;;;;;5081893;28;20142;-75
2022/10/09 03:10:02;;;;;;;7.22;5.97;;;;;;;;;;5081890;28;20147;-77
2022/10/09 03:12:29;;;;;;;15.40;8.68;;;;;;;;;;5049876;28;20057;-75
2022/10/09 03:14:57;;;;;;;15.35;9.63;;;;;;;;;;5049401;28;20517;-77
2022/10/09 03:17:24;;;;;;;21.27;11.82;;;;;;;;;;5066485;28;20039;-77
2022/10/09 03:19:52;;;;;;;9.15;7.78;;;;;;;;;;5076432;28;20110;-77
2022/10/09 03:22:19;;;;;;;7.10;5.82;;;;;;;;;;5057103;28;20063;-77
2022/10/09 03:24:46;;;;;;;7.22;6.53;;;;;;;;;;5062668;28;20036;-76
2022/10/09 03:27:14;;;;;;;8.32;5.68;;;;;;;;;;5078064;28;20055;-77
2022/10/09 03:29:41;;;;;;;27.63;8.90;;;;;;;;;;5049705;28;20037;-77
2022/10/09 03:32:08;;;;;;;14.35;8.07;;;;;;;;;;5052184;28;20223;-77
2022/10/09 03:34:35;;;;;;;10.40;5.15;;;;;;;;;;5062845;28;20051;-76
2022/10/09 03:37:03;;;;;;;11.02;7.85;;;;;;;;;;5061724;28;20045;-76
2022/10/09 03:39:31;;;;;;;32.75;12.93;;;;;;;;;;5063578;28;20505;-76
2022/10/09 03:41:58;;;;;;;26.60;5.82;;;;;;;;;;5070918;28;20058;-76
2022/10/09 03:44:25;;;;;;;18.90;7.13;;;;;;;;;;5072561;28;20036;-76
2022/10/09 03:46:52;;;;;;;26.88;9.43;;;;;;;;;;5079166;28;20079;-77
2022/10/09 03:49:20;;;;;;;18.65;8.73;;;;;;;;;;5051244;28;20055;-77
2022/10/09 03:51:48;;;;;;;20.33;8.07;;;;;;;;;;5047844;28;20057;-76
2022/10/09 03:54:15;;;;;;;23.08;11.45;;;;;;;;;;5048690;28;20136;-76
2022/10/09 03:56:42;;;;;;;35.40;8.90;;;;;;;;;;5064319;28;20044;-76
2022/10/09 03:59:10;;;;;;;10.68;6.53;;;;;;;;;;5058609;28;20064;-76
2022/10/09 04:01:37;;;;;;;17.15;5.82;;;;;;;;;;5063645;28;20090;-76
2022/10/09 04:04:05;;;;;;;8.25;5.75;;;;;;;;;;5074907;28;20040;-76
2022/10/09 04:06:32;;;;;;;11.13;5.72;;;;;;;;;;5056199;28;20044;-77
2022/10/09 04:09:00;;;;;;;16.00;5.80;;;;;;;;;;5069128;28;20040;-76
2022/10/09 04:11:27;;;;;;;11.90;6.60;;;;;;;;;;5063830;28;20465;-76
2022/10/09 04:13:54;;;;;;;12.13;6.57;;;;;;;;;;5075012;28;20122;-76
2022/10/09 04:16:21;;;;;;;15.95;10.73;;;;;;;;;;5063340;28;20045;-76
2022/10/09 04:18:49;;;;;;;15.73;8.15;;;;;;;;;;5079415;28;20043;-76
2022/10/09 04:21:16;;;;;;;17.27;9.02;;;;;;;;;;5069300;28;20109;-77
2022/10/09 04:23:44;;;;;;;19.08;9.68;;;;;;;;;;5063723;28;20083;-76
2022/10/09 04:26:12;;;;;;;18.13;10.98;;;;;;;;;;5062229;28;20504;-76
2022/10/09 04:28:39;;;;;;;20.73;11.82;;;;;;;;;;5064925;28;20135;-76
2022/10/09 04:31:06;;;;;;;20.83;12.82;;;;;;;;;;5065458;28;20047;-76
2022/10/09 04:33:34;;;;;;;16.50;10.27;;;;;;;;;;5048285;28;20505;-77
2022/10/09 04:36:01;;;;;;;14.43;8.13;;;;;;;;;;5077504;28;20046;-77
2022/10/09 04:38:30;;;;;;;15.05;6.00;;;;;;;;;;5067907;28;20139;-77
2022/10/09 04:41:05;;;;;;;10.43;6.75;;;;;;;;;;5068902;28;20040;-76
2022/10/09 04:43:33;;;;;;;10.70;7.85;;;;;;;;;;5075964;28;20044;-77
2022/10/09 04:46:07;;;;;;;9.95;7.85;;;;;;;;;;5068174;28;20123;-77
2022/10/09 04:48:42;;;;;;;15.10;8.90;;;;;;;;;;5063335;28;20052;-77
2022/10/09 04:51:10;;;;;;;10.23;5.57;;;;;;;;;;5050381;28;20049;-76
2022/10/09 04:53:37;;;;;;;12.50;5.78;;;;;;;;;;5067267;28;20127;-76
2022/10/09 04:56:07;;;;;;;8.50;6.88;;;;;;;;;;5072887;28;20048;-76
2022/10/09 04:58:35;;;;;;;6.15;5.55;;;;;;;;;;5063233;28;20080;-76
2022/10/09 05:01:09;;;;;;;7.40;6.60;;;;;;;;;;5046339;28;20049;-76
2022/10/09 05:03:37;;;;;;;10.18;5.95;;;;;;;;;;5048317;28;20037;-76
2022/10/09 05:06:06;;;;;;;9.38;6.28;;;;;;;;;;5059685;28;20100;-76
2022/10/09 05:08:33;;;;;;;7.57;5.40;;;;;;;;;;5069449;28;20033;-77
2022/10/09 05:11:02;;;;;;;8.00;5.40;;;;;;;;;;5057058;28;20064;-77
2022/10/09 05:13:30;;;;;;;14.85;5.20;;;;;;;;;;5060550;28;20056;-77
2022/10/09 05:16:00;;;;;;;5.55;4.97;;;;;;;;;;5061196;28;20051;-77
2022/10/09 05:18:28;;;;;;;7.00;5.30;;;;;;;;;;5069308;28;20037;-76
2022/10/09 05:20:55;;;;;;;11.63;7.72;;;;;;;;;;5078089;28;20138;-77
2022/10/09 05:23:22;;;;;;;7.15;5.43;;;;;;;;;;5076270;28;20063;-77
2022/10/09 05:25:57;;;;;;;5.15;4.72;;;;;;;;;;5076221;28;20043;-77
2022/10/09 05:28:24;;;;;;;4.47;4.07;;;;;;;;;;5077362;28;20040;-76
2022/10/09 05:30:51;;;;;;;5.78;5.30;;;;;;;;;;5083547;28;20421;-77
2022/10/09 05:33:19;;;;;;;7.60;5.50;;;;;;;;;;5070937;28;20467;-77
2022/10/09 05:35:50;;;;;;;5.50;5.00;;;;;;;;;;5082484;28;20036;-77
2022/10/09 05:38:18;;;;;;;19.05;4.70;;;;;;;;;;5044128;28;20780;-77
2022/10/09 05:40:51;;;;;;;6.25;4.93;;;;;;;;;;5049068;28;20043;-77
2022/10/09 05:43:18;;;;;;;10.18;4.63;;;;;;;;;;5059617;28;20094;-77
2022/10/09 05:45:46;;;;;;;4.65;4.10;;;;;;;;;;5063325;28;20117;-77
2022/10/09 05:48:13;;;;;;;9.45;4.50;;;;;;;;;;5073266;28;20078;-77
2022/10/09 05:50:40;;;;;;;15.13;4.15;;;;;;;;;;5067753;28;20056;-77
2022/10/09 05:53:08;;;;;;;13.50;4.40;;;;;;;;;;5079741;28;20044;-77
2022/10/09 05:55:35;;;;;;;4.00;3.70;;;;;;;;;;5058130;28;20102;-77
2022/10/09 05:58:03;;;;;;;18.98;4.18;;;;;;;;;;5052586;28;20047;-77
2022/10/09 06:00:31;;;;;;;4.85;3.97;;;;;;;;;;5046032;28;20489;-77
2022/10/09 06:02:59;;;;;;;4.60;4.20;;;;;;;;;;5063192;28;20036;-77
2022/10/09 06:05:26;;;;;;;8.30;4.00;;;;;;;;;;5039039;28;20494;-77
2022/10/09 06:07:53;;;;;;;4.47;4.07;;;;;;;;;;5063284;28;20044;-77
2022/10/09 06:10:20;;;;;;;3.88;3.58;;;;;;;;;;5065038;28;20135;-77
2022/10/09 06:12:48;;;;;;;4.22;3.85;;;;;;;;;;5054294;28;20225;-77
2022/10/09 06:15:15;;;;;;;4.20;3.83;;;;;;;;;;5073390;28;20122;-77
2022/10/09 06:17:43;;;;;;;4.10;3.80;;;;;;;;;;5067432;28;20135;-77
2022/10/09 06:20:10;;;;;;;5.25;3.47;;;;;;;;;;5062642;28;20041;-77
2022/10/09 06:22:37;;;;;;;7.18;3.88;;;;;;;;;;5069320;28;20502;-77
2022/10/09 06:25:05;;;;;;;3.60;3.30;;;;;;;;;;5076797;28;20509;-77
2022/10/09 06:27:32;;;;;;;6.07;3.60;;;;;;;;;;5079119;28;20130;-77
2022/10/09 06:29:59;;;;;;;3.72;3.40;;;;;;;;;;5084729;28;20042;-77
2022/10/09 06:32:26;;;;;;;3.75;3.22;;;;;;;;;;5067623;28;20050;-77
2022/10/09 06:34:54;;;;;;;3.75;3.40;;;;;;;;;;5080453;28;20038;-76
2022/10/09 06:37:21;;;;;;;3.45;3.08;;;;;;;;;;5080066;28;20040;-77
2022/10/09 06:39:48;;;;;;;3.47;3.17;;;;;;;;;;5076802;28;20040;-77
2022/10/09 06:42:16;;;;;;;5.80;3.30;;;;;;;;;;5072424;28;20093;-77
2022/10/09 06:44:50;;;;;;;3.90;3.00;;;;;;;;;;5068258;28;20120;-77
2022/10/09 06:47:17;;;;;;;4.10;3.70;;;;;;;;;;5071047;28;20044;-77
2022/10/09 06:49:44;;;;;;;4.55;4.15;;;;;;;;;;5076555;28;20044;-77
2022/10/09 06:52:12;;;;;;;4.30;3.90;;;;;;;;;;5078201;28;20152;-76
2022/10/09 06:54:39;;;;;;;4.05;3.75;;;;;;;;;;5080073;28;20593;-76
2022/10/09 06:57:06;;;;;;;4.95;4.20;;;;;;;;;;5078549;28;20040;-77
2022/10/09 06:59:33;;;;;;;7.05;4.03;;;;;;;;;;5068796;28;20119;-77
2022/10/09 07:02:00;;;;;;;6.70;4.55;;;;;;;;;;5064159;28;20512;-77
2022/10/09 07:04:28;;;;;;;4.70;3.60;;;;;;;;;;5079692;28;20101;-77
2022/10/09 07:06:55;;;;;;;4.15;3.85;;;;;;;;;;5072660;28;20514;-77
2022/10/09 07:09:22;;;;;;;3.45;3.15;;;;;;;;;;5047091;28;20140;-77
2022/10/09 07:11:49;;;;;;;3.47;3.22;;;;;;;;;;5054517;28;20041;-77
2022/10/09 07:14:17;;;;;;;3.25;3.00;;;;;;;;;;5053916;28;20040;-78
2022/10/09 07:16:46;;;;;;;2.80;2.60;;;;;;;;;;5053074;28;20044;-77
2022/10/09 07:19:13;;;;;;;5.45;3.47;;;;;;;;;;5065747;28;20043;-77
2022/10/09 07:21:42;;;;;;;3.35;3.08;;;;;;;;;;5069017;28;20131;-77
2022/10/09 07:24:10;;;;;;;4.70;3.15;;;;;;;;;;5076008;28;20055;-77
2022/10/09 07:26:39;;;;;;;3.03;2.83;;;;;;;;;;5077411;28;20047;-78
2022/10/09 07:29:07;;;;;;;3.00;2.78;;;;;;;;;;5083384;28;20121;-78
2022/10/09 07:31:35;;;;;;;5.90;2.85;;;;;;;;;;5076172;28;20037;-77
2022/10/09 07:34:02;;;;;;;3.22;2.90;;;;;;;;;;5083953;28;20084;-76
2022/10/09 07:36:29;;;;;;;4.10;2.80;;;;;;;;;;5066576;28;20040;-77
2022/10/09 07:38:57;;;;;;;3.40;2.65;;;;;;;;;;5068636;28;20036;-78
2022/10/09 07:41:26;;;;;;;3.00;2.80;;;;;;;;;;5078004;28;20633;-78
2022/10/09 07:43:53;;;;;;;3.72;2.80;;;;;;;;;;5063419;28;20075;-77
2022/10/09 07:46:23;;;;;;;2.55;2.35;;;;;;;;;;5073356;28;20052;-77
2022/10/09 07:48:51;;;;;;;2.50;2.30;;;;;;;;;;5056544;28;20115;-77
2022/10/09 07:51:19;;;;;;;3.50;2.53;;;;;;;;;;5078366;28;20151;-78
2022/10/09 07:53:47;;;;;;;5.35;2.90;;;;;;;;;;5071646;28;20504;-77
2022/10/09 07:56:15;;;;;;;3.00;2.80;;;;;;;;;;5077453;28;20467;-77
2022/10/09 07:58:43;;;;;;;3.45;2.70;;;;;;;;;;5071040;28;20036;-77
2022/10/09 08:01:10;;;;;;;2.55;2.22;;;;;;;;;;5066630;28;20047;-78
2022/10/09 08:03:43;;;;;;;2.72;2.53;;;;;;;;;;5074099;28;20040;-77
2022/10/09 08:06:11;;;;;;;2.10;2.00;;;;;;;;;;5067584;28;20048;-77
2022/10/09 08:08:38;;;;;;;5.47;2.45;;;;;;;;;;5076593;28;20677;-77
2022/10/09 08:11:10;;;;;;;3.70;2.40;;;;;;;;;;5063057;28;20049;-78
2022/10/09 08:13:37;;;;;;;2.42;2.28;;;;;;;;;;5061712;28;20075;-77
2022/10/09 08:16:05;;;;;;;4.95;2.40;;;;;;;;;;5065250;28;20072;-77
2022/10/09 08:18:34;;;;;;;3.97;2.20;;;;;;;;;;5066948;28;20642;-77
2022/10/09 08:21:03;;;;;;;2.03;1.83;;;;;;;;;;5075102;28;20561;-77
2022/10/09 08:23:30;;;;;;;3.03;1.85;;;;;;;;;;5067451;28;20032;-76
2022/10/09 08:25:58;;;;;;;4.60;2.50;;;;;;;;;;5071554;28;20055;-77
2022/10/09 08:28:25;;;;;;;2.40;2.20;;;;;;;;;;5063334;28;20071;-77
2022/10/09 08:30:52;;;;;;;2.53;1.80;;;;;;;;;;5052548;28;20041;-76
2022/10/09 08:33:22;;;;;;;3.88;2.05;;;;;;;;;;5072203;28;20403;-77
2022/10/09 08:35:50;;;;;;;2.83;2.08;;;;;;;;;;5072924;28;20048;-78
2022/10/09 08:38:17;;;;;;;3.65;2.00;;;;;;;;;;5057460;28;20117;-77
2022/10/09 08:41:16;;;;;;;5.72;1.98;;;;;;;;;;5070808;28;20032;-77
2022/10/09 08:43:45;;;;;;;2.20;1.70;;;;;;;;;;5063128;28;20040;-78
2022/10/09 08:46:24;;;;;;;2.17;1.70;;;;;;;;;;5063255;28;20044;-78
2022/10/09 08:48:53;;;;;;;2.03;1.80;;;;;;;;;;5063671;28;20086;-77
2022/10/09 08:51:26;;;;;;;1.63;1.40;;;;;;;;;;5052381;28;20057;-78
2022/10/09 08:54:00;;;;;;;3.70;2.75;;;;;;;;;;5062332;28;20156;-78
2022/10/09 08:56:28;;;;;;;2.20;1.45;;;;;;;;;;5073196;28;20122;-77
2022/10/09 08:58:55;;;;;;;1.95;1.33;;;;;;;;;;5060883;28;20502;-78
2022/10/09 09:01:29;;;;;;;2.30;0.90;;;;;;;;;;5060280;28;20029;-77
2022/10/09 09:03:59;;;;;;;1.20;0.93;;;;;;;;;;5079172;28;20087;-77
2022/10/09 09:06:35;;;;;;;4.65;1.08;;;;;;;;;;5059085;28;20043;-77
2022/10/09 09:09:15;;;;;;;1.92;1.00;;;;;;;;;;5058201;28;20057;-77
2022/10/09 09:12:01;;;;;;;4.75;1.40;;;;;;;;;;5060992;28;20076;-77
2022/10/09 09:14:34;;;;;;;1.90;1.10;;;;;;;;;;5083688;28;20130;-77
2022/10/09 09:17:08;;;;;;;1.85;1.20;;;;;;;;;;5092637;28;20071;-78
2022/10/09 09:19:35;;;;;;;2.95;1.10;;;;;;;;;;5083485;28;20509;-77
2022/10/09 09:22:03;;;;;;;1.38;1.00;;;;;;;;;;5070841;28;20486;-76
2022/10/09 09:24:37;;;;;;;2.40;0.90;;;;;;;;;;5057974;28;20036;-77
2022/10/09 09:27:10;;;;;;;2.40;1.23;;;;;;;;;;5066430;28;20540;-77
2022/10/09 09:29:46;;;;;;;2.15;1.10;;;;;;;;;;5060851;28;20044;-76
2022/10/09 09:32:16;;;;;;;1.50;0.98;;;;;;;;;;5071790;28;20089;-77
2022/10/09 09:34:43;;;;;;;2.33;1.08;;;;;;;;;;5080946;28;20109;-77
2022/10/09 09:37:11;;;;;;;1.92;1.15;;;;;;;;;;5067137;28;20113;-78
2022/10/09 09:39:38;;;;;;;1.48;1.25;;;;;;;;;;5080524;28;20044;-77
2022/10/09 09:42:27;;;;;;;2.58;1.40;;;;;;;;;;5054314;28;20039;-77
2022/10/09 09:44:59;;;;;;;3.40;1.40;;;;;;;;;;5079842;28;20032;-77
2022/10/09 09:47:29;;;;;;;3.63;1.70;;;;;;;;;;5080184;28;20043;-77
2022/10/09 09:49:58;;;;;;;7.40;1.85;;;;;;;;;;5070254;28;20071;-76
2022/10/09 09:52:27;;;;;;;2.35;1.67;;;;;;;;;;5077735;28;20539;-78
2022/10/09 09:54:55;;;;;;;2.17;1.15;;;;;;;;;;5086300;28;20040;-77
2022/10/09 09:57:37;;;;;;;2.17;1.23;;;;;;;;;;5062153;28;20076;-77
2022/10/09 10:00:09;;;;;;;6.28;2.70;;;;;;;;;;5056058;28;20110;-77
2022/10/09 10:02:36;;;;;;;2.13;1.50;;;;;;;;;;5061816;28;20068;-77
2022/10/09 10:05:16;;;;;;;1.27;1.13;;;;;;;;;;5075888;28;20064;-77
2022/10/09 10:07:43;;;;;;;2.97;1.73;;;;;;;;;;5061491;28;20039;-77
2022/10/09 10:10:15;;;;;;;3.60;1.67;;;;;;;;;;5076123;28;20109;-78
2022/10/09 10:13:00;;;;;;;2.25;1.30;;;;;;;;;;5070146;28;20048;-78
2022/10/09 10:15:29;;;;;;;4.88;2.80;;;;;;;;;;5069250;28;20091;-77
2022/10/09 10:18:06;;;;;;;3.05;1.60;;;;;;;;;;5056113;28;20055;-78
2022/10/09 10:20:42;;;;;;;7.97;5.03;;;;;;;;;;5064717;28;20044;-78
2022/10/09 10:23:24;;;;;;;7.13;3.95;;;;;;;;;;5054632;28;20037;-77
2022/10/09 10:25:56;;;;;;;2.75;1.65;;;;;;;;;;5070524;28;20062;-77
2022/10/09 10:28:35;;;;;;;11.32;6.05;;;;;;;;;;5069407;28;20037;-78
2022/10/09 10:31:05;;;;;;;2.88;1.60;;;;;;;;;;5078321;28;20051;-76
2022/10/09 10:33:33;;;;;;;3.80;2.50;;;;;;;;;;5063779;28;20033;-77
2022/10/09 10:36:00;;;;;;;8.77;4.78;;;;;;;;;;5068416;28;20496;-77
2022/10/09 10:38:32;;;;;;;4.88;1.63;;;;;;;;;;5070974;28;20150;-77
2022/10/09 10:41:19;;;;;;;5.63;2.22;;;;;;;;;;5082019;28;20044;-79
2022/10/09 10:43:46;;;;;;;14.32;6.43;;;;;;;;;;5057340;28;20053;-77
2022/10/09 10:46:20;;;;;;;2.92;1.60;;;;;;;;;;5054740;28;20132;-77
2022/10/09 10:48:48;;;;;;;3.03;1.42;;;;;;;;;;5088613;28;20058;-76
2022/10/09 10:51:35;;;;;;;7.82;4.15;;;;;;;;;;5052384;28;20075;-76
2022/10/09 10:54:15;;;;;;;5.68;2.22;;;;;;;;;;5073613;28;20045;-77
2022/10/09 10:56:46;;;;;;;6.65;3.63;;;;;;;;;;5075556;28;20041;-77
2022/10/09 10:59:21;;;;;;;21.92;9.55;;;;;;;;;;5066603;28;20033;-77
2022/10/09 11:01:55;;;;;;;9.25;4.63;;;;;;;;;;5065043;28;20033;-76
2022/10/09 11:04:25;;;;;;;5.13;3.00;;;;;;;;;;5073446;28;20040;-77
2022/10/09 11:07:15;;;;;;;6.85;3.13;;;;;;;;;;5067384;28;20506;-79
2022/10/09 11:10:01;;;;;;;22.27;8.77;;;;;;;;;;5048363;28;20130;-77
2022/10/09 11:12:37;;;;;;;16.23;7.22;;;;;;;;;;5055095;28;20056;-77
2022/10/09 11:15:20;;;;;;;8.15;4.35;;;;;;;;;;5051471;28;20037;-78
2022/10/09 11:17:55;;;;;;;17.60;7.80;;;;;;;;;;5068827;28;20126;-77
2022/10/09 11:20:41;;;;;;;4.80;2.72;;;;;;;;;;5067202;28;20044;-77
2022/10/09 11:23:16;;;;;;;4.78;3.70;;;;;;;;;;5071706;28;20059;-77
2022/10/09 11:25:57;;;;;;;2.10;1.85;;;;;;;;;;5072237;28;20082;-77
2022/10/09 11:28:27;;;;;;;4.50;2.55;;;;;;;;;;5072156;28;20075;-77
2022/10/09 11:31:00;;;;;;;3.22;1.65;;;;;;;;;;5057390;28;20044;-77
2022/10/09 11:33:32;;;;;;;3.25;1.33;;;;;;;;;;5066297;28;20048;-83
2022/10/09 11:36:11;;;;;;;3.90;2.03;;;;;;;;;;5064537;28;20040;-77
2022/10/09 11:38:41;;;;;;;1.13;1.10;;;;;;;;;;5071975;28;20459;-77
2022/10/09 11:41:10;;;;;;;2.20;1.10;;;;;;;;;;5072523;28;20036;-77
2022/10/09 11:43:46;;;;;;;1.08;1.00;;;;;;;;;;5071900;28;20047;-77
2022/10/09 11:46:36;;;;;;;1.20;1.13;;;;;;;;;;5063640;28;20043;-78
2022/10/09 11:49:07;;;;;;;0.75;0.75;;;;;;;;;;5021868;28;20052;-79
2022/10/09 11:51:40;;;;;;;3.50;1.10;;;;;;;;;;5061520;28;20428;-77
2022/10/09 11:54:19;;;;;;;2.10;1.30;;;;;;;;;;5067878;28;20049;-77
2022/10/09 11:57:00;;;;;;;1.33;1.00;;;;;;;;;;5059191;28;20068;-77
2022/10/09 11:59:32;;;;;;;2.10;1.15;;;;;;;;;;5073953;28;20565;-77
2022/10/09 12:02:12;;;;;;;2.80;1.10;;;;;;;;;;5076109;28;20037;-77
2022/10/09 12:04:39;;;;;;;1.08;0.88;;;;;;;;;;5041612;28;21714;-77
2022/10/09 12:07:27;;;;;;;1.80;1.20;;;;;;;;;;5067870;28;20074;-78
2022/10/09 12:09:57;;;;;;;2.72;1.52;;;;;;;;;;5066222;28;20044;-77
2022/10/09 12:12:24;;;;;;;4.38;1.02;;;;;;;;;;5066269;28;20090;-77
2022/10/09 12:14:52;;;;;;;2.72;1.60;;;;;;;;;;5069805;28;20131;-77
2022/10/09 12:17:22;;;;;;;2.35;1.30;;;;;;;;;;5057804;28;20048;-77
2022/10/09 12:19:52;;;;;;;1.27;0.82;;;;;;;;;;5068588;28;20062;-76
2022/10/09 12:22:26;;;;;;;2.67;1.02;;;;;;;;;;5075666;28;20029;-77
2022/10/09 12:24:55;;;;;;;2.42;0.98;;;;;;;;;;5069118;28;20032;-77
2022/10/09 12:27:37;;;;;;;2.70;1.30;;;;;;;;;;5068742;28;20051;-76
2022/10/09 12:30:13;;;;;;;1.73;1.50;;;;;;;;;;5062751;28;20079;-73
2022/10/09 12:32:50;;;;;;;2.65;1.52;;;;;;;;;;5063540;28;20479;-77
2022/10/09 12:35:20;;;;;;;3.17;1.25;;;;;;;;;;5071574;28;20037;-76
2022/10/09 12:37:48;;;;;;;3.63;0.98;;;;;;;;;;5072392;28;20069;-77
2022/10/09 12:40:44;;;;;;;1.55;1.00;;;;;;;;;;5071021;28;20036;-76
2022/10/09 12:43:15;;;;;;;1.88;1.02;;;;;;;;;;5064382;28;20048;-77
2022/10/09 12:45:43;;;;;;;1.85;1.08;;;;;;;;;;5064737;28;20041;-76
2022/10/09 12:48:12;;;;;;;1.42;1.00;;;;;;;;;;5046565;28;20037;-76
2022/10/09 12:50:39;;;;;;;1.23;0.82;;;;;;;;;;5054933;28;20044;-77
2022/10/09 12:53:12;;;;;;;2.65;1.10;;;;;;;;;;5052416;28;20121;-77
2022/10/09 12:55:50;;;;;;;3.30;1.00;;;;;;;;;;5069535;28;20124;-76
2022/10/09 12:58:19;;;;;;;2.20;1.10;;;;;;;;;;5059502;28;20532;-75
2022/10/09 13:00:47;;;;;;;1.40;1.00;;;;;;;;;;5066197;28;20119;-78
2022/10/09 13:03:26;;;;;;;1.55;0.85;;;;;;;;;;5054239;28;20055;-78
2022/10/09 13:05:56;;;;;;;1.85;0.88;;;;;;;;;;5049968;28;20135;-77
2022/10/09 13:08:25;;;;;;;3.42;1.00;;;;;;;;;;5058619;28;20067;-78
2022/10/09 13:10:52;;;;;;;1.00;0.80;;;;;;;;;;5048625;28;20084;-77
2022/10/09 13:13:22;;;;;;;1.08;0.90;;;;;;;;;;5060969;28;20220;-76
2022/10/09 13:16:05;;;;;;;2.75;1.10;;;;;;;;;;5067857;28;20448;-77
2022/10/09 13:18:32;;;;;;;0.82;0.73;;;;;;;;;;5042715;28;20056;-77
2022/10/09 13:21:01;;;;;;;1.20;0.80;;;;;;;;;;5066008;28;20040;-77
2022/10/09 13:23:31;;;;;;;3.22;1.10;;;;;;;;;;5067250;28;20139;-77
2022/10/09 13:26:00;;;;;;;2.08;1.10;;;;;;;;;;5072687;28;20033;-78
2022/10/09 13:28:30;;;;;;;2.00;1.30;;;;;;;;;;5073383;28;20133;-76
2022/10/09 13:31:05;;;;;;;2.58;1.10;;;;;;;;;;5068902;28;20115;-76
2022/10/09 13:33:34;;;;;;;1.25;0.98;;;;;;;;;;5065510;28;20098;-75
2022/10/09 13:39:42;;;;;;;0.88;0.80;;;;;;;;;;5038314;28;20416;-76
2022/10/09 13:42:11;;;;;;;1.02;0.80;;;;;;;;;;5038587;28;20040;-76
2022/10/09 13:44:38;;;;;;;2.45;1.20;;;;;;;;;;5035228;28;20496;-76
2022/10/09 13:47:06;;;;;;;1.55;1.00;;;;;;;;;;5036822;28;20605;-76
2022/10/09 13:49:33;;;;;;;1.23;1.10;;;;;;;;;;5036695;28;20127;-75
2022/10/09 13:52:00;;;;;;;1.58;1.17;;;;;;;;;;5038719;28;20045;-76
2022/10/09 13:54:28;;;;;;;1.55;1.10;;;;;;;;;;5018411;28;20057;-76
2022/10/09 13:56:55;;;;;;;1.80;1.10;;;;;;;;;;5041871;28;20817;-77
2022/10/09 13:59:23;;;;;;;1.00;0.85;;;;;;;;;;5043468;28;20049;-76
2022/10/09 14:01:51;;;;;;;1.33;1.10;;;;;;;;;;5043407;28;20111;-75
2022/10/09 14:04:18;;;;;;;1.33;0.98;;;;;;;;;;5032344;28;20103;-76
2022/10/09 14:06:46;;;;;;;1.25;1.13;;;;;;;;;;5029438;28;20042;-76
2022/10/09 14:09:13;;;;;;;1.88;1.02;;;;;;;;;;5032768;28;20041;-76
2022/10/09 14:11:40;;;;;;;1.90;1.00;;;;;;;;;;5031859;28;20049;-76
2022/10/09 14:14:08;;;;;;;1.02;0.93;;;;;;;;;;5038041;28;20057;-76
2022/10/09 14:16:35;;;;;;;2.22;1.13;;;;;;;;;;5028353;28;20052;-75
2022/10/09 14:19:03;;;;;;;3.35;1.40;;;;;;;;;;5036847;28;20068;-76
2022/10/09 14:21:31;;;;;;;1.33;1.10;;;;;;;;;;5030544;28;20087;-77
2022/10/09 14:23:59;;;;;;;1.20;1.10;;;;;;;;;;5030812;28;20043;-76
2022/10/09 14:26:27;;;;;;;2.90;1.70;;;;;;;;;;5036788;28;20056;-77
2022/10/09 14:28:55;;;;;;;4.03;1.20;;;;;;;;;;5039234;28;20533;-76
2022/10/09 14:31:22;;;;;;;2.17;1.05;;;;;;;;;;5017615;28;20049;-76
2022/10/09 14:33:49;;;;;;;1.45;1.05;;;;;;;;;;5030239;28;20045;-76
2022/10/09 14:36:18;;;;;;;4.15;1.20;;;;;;;;;;5036988;28;20566;-77
2022/10/09 14:38:46;;;;;;;3.72;1.00;;;;;;;;;;5026400;28;20049;-76
2022/10/09 14:41:16;;;;;;;1.13;1.05;;;;;;;;;;5035107;28;20044;-76
2022/10/09 14:43:44;;;;;;;1.33;1.23;;;;;;;;;;5035640;28;20033;-76
2022/10/09 14:46:15;;;;;;;4.40;1.30;;;;;;;;;;5035691;28;20522;-75
2022/10/09 14:48:44;;;;;;;2.22;1.70;;;;;;;;;;5032270;28;20060;-76
2022/10/09 14:51:12;;;;;;;3.63;1.17;;;;;;;;;;5020884;28;20064;-75
2022/10/09 14:53:40;;;;;;;1.77;1.20;;;;;;;;;;5019236;28;20499;-76
2022/10/09 14:56:10;;;;;;;1.52;1.10;;;;;;;;;;5000934;28;20226;-76
2022/10/09 14:58:38;;;;;;;2.05;1.10;;;;;;;;;;4997125;28;20049;-76